createdAt,value
2022-08-08T00:00:50.194Z,102498.31
2022-08-08T00:02:58.944Z,102498.13
2022-08-08T00:06:28.413Z,102503.06
2022-08-08T00:09:53.453Z,102500.88
2022-08-08T00:13:10.477Z,102502.97
2022-08-08T00:16:24.322Z,102495.88
2022-08-08T00:19:36.987Z,102491.06
2022-08-08T00:22:48.103Z,102497.59
2022-08-08T00:25:57.392Z,102487.69
2022-08-08T00:29:09.783Z,102490.06
2022-08-08T00:32:35.023Z,102484.81
2022-08-08T00:35:52.018Z,102486.56
2022-08-08T00:41:08.010Z,102489.53
2022-08-08T00:43:11.942Z,102484.75
2022-08-08T00:46:58.622Z,102477.13
2022-08-08T00:50:52.414Z,102488.88
2022-08-08T00:54:28.890Z,102475.94
2022-08-08T00:58:14.705Z,102480.56
2022-08-08T01:01:38.440Z,102479.91
2022-08-08T01:05:59.529Z,102484.53
2022-08-08T01:09:54.340Z,102486.59
2022-08-08T01:13:43.673Z,102488.69
2022-08-08T01:17:51.667Z,102493.47
2022-08-08T01:22:10.128Z,102484.97
2022-08-08T01:25:40.082Z,102493.81
2022-08-08T01:29:35.440Z,102492.13
2022-08-08T01:33:27.696Z,102495.84
2022-08-08T01:37:21.965Z,102493.28
2022-08-08T01:40:55.200Z,102496.22
2022-08-08T01:44:17.366Z,102503.69
2022-08-08T01:48:16.120Z,102496.22
2022-08-08T01:51:48.645Z,102492.44
2022-08-08T01:55:46.044Z,102491.25
2022-08-08T01:58:46.465Z,102492.28
2022-08-08T02:02:13.957Z,102492.59
2022-08-08T02:05:56.725Z,102488.19
2022-08-08T02:10:01.704Z,102494.16
2022-08-08T02:12:54.481Z,102496.03
2022-08-08T02:16:20.977Z,102499.63
2022-08-08T02:20:07.632Z,102502.69
2022-08-08T02:23:16.253Z,102499.09
2022-08-08T02:26:31.205Z,102491.59
2022-08-08T02:29:52.718Z,102500.25
2022-08-08T02:33:41.437Z,102494.63
2022-08-08T02:37:52.996Z,102495.50
2022-08-08T02:40:49.865Z,102498.03
2022-08-08T02:44:39.320Z,102501.25
2022-08-08T02:48:28.555Z,102509.06
2022-08-08T02:51:59.723Z,102500.38
2022-08-08T02:56:03.224Z,102499.53
2022-08-08T03:00:01.746Z,102510.25
2022-08-08T03:05:04.163Z,102500.03
2022-08-08T03:07:59.334Z,102492.88
2022-08-08T03:12:01.045Z,102491.16
2022-08-08T03:15:56.685Z,102492.88
2022-08-08T03:19:26.701Z,102501.03
2022-08-08T03:22:38.908Z,102510.03
2022-08-08T03:25:52.004Z,102506.78
2022-08-08T03:29:03.365Z,102500.88
2022-08-08T03:32:29.155Z,102509.72
2022-08-08T03:35:39.971Z,102515.16
2022-08-08T03:38:55.673Z,102514.84
2022-08-08T03:42:27.292Z,102526.63
2022-08-08T03:46:06.817Z,102516.94
2022-08-08T03:49:26.557Z,102517.28
2022-08-08T03:52:26.853Z,102523.06
2022-08-08T03:55:55.542Z,102527.66
2022-08-08T03:59:00.508Z,102523.56
2022-08-08T04:02:36.623Z,102527.16
2022-08-08T04:05:49.663Z,102536.06
2022-08-08T04:08:57.206Z,102537.94
2022-08-08T04:12:04.132Z,102536.41
2022-08-08T04:15:22.260Z,102536.56
2022-08-08T04:18:28.271Z,102541.34
2022-08-08T04:21:38.084Z,102545.25
2022-08-08T04:24:48.724Z,102549.00
2022-08-08T04:28:35.140Z,102547.66
2022-08-08T04:31:30.668Z,102553.28
2022-08-08T04:34:58.274Z,102553.44
2022-08-08T04:38:09.594Z,102560.25
2022-08-08T04:41:21.733Z,102563.31
2022-08-08T04:44:27.956Z,102565.53
2022-08-08T04:47:46.448Z,102567.03
2022-08-08T04:50:55.458Z,102567.72
2022-08-08T04:54:40.110Z,102569.59
2022-08-08T04:57:34.330Z,102566.88
2022-08-08T05:00:40.264Z,102566.38
2022-08-08T05:04:09.876Z,102563.78
2022-08-08T05:07:18.798Z,102572.78
2022-08-08T05:10:28.230Z,102574.69
2022-08-08T05:13:34.234Z,102587.09
2022-08-08T05:16:50.925Z,102584.69
2022-08-08T05:20:14.997Z,102582.59
2022-08-08T05:23:21.253Z,102585.63
2022-08-08T05:26:27.599Z,102582.22
2022-08-08T05:29:35.605Z,102582.28
2022-08-08T05:32:43.458Z,102577.97
2022-08-08T05:35:55.150Z,102577.00
2022-08-08T05:39:03.074Z,102575.50
2022-08-08T05:42:09.480Z,102581.75
2022-08-08T05:45:25.519Z,102580.00
2022-08-08T05:48:39.066Z,102581.91
2022-08-08T05:51:51.366Z,102577.97
2022-08-08T05:55:08.899Z,102574.22
2022-08-08T05:58:20.355Z,102586.97
2022-08-08T06:01:52.720Z,102588.00
2022-08-08T06:05:01.824Z,102583.22
2022-08-08T06:08:33.303Z,102586.72
2022-08-08T06:11:45.932Z,102586.03
2022-08-08T06:14:51.979Z,102583.78
2022-08-08T06:18:20.586Z,102589.06
2022-08-08T06:21:33.120Z,102596.19
2022-08-08T06:24:56.222Z,102593.09
2022-08-08T06:28:12.134Z,102586.06
2022-08-08T06:31:21.838Z,102583.72
2022-08-08T06:34:40.601Z,102587.88
2022-08-08T06:37:50.815Z,102588.28
2022-08-08T06:41:13.377Z,102587.44
2022-08-08T06:44:25.437Z,102589.97
2022-08-08T06:47:52.123Z,102588.44
2022-08-08T06:51:07.641Z,102595.50
2022-08-08T06:54:15.681Z,102588.56
2022-08-08T06:57:29.468Z,102593.03
2022-08-08T07:00:52.094Z,102603.59
2022-08-08T07:04:37.900Z,102597.84
2022-08-08T07:07:39.354Z,102603.00
2022-08-08T07:10:51.532Z,102610.00
2022-08-08T07:14:02.058Z,102601.13
2022-08-08T07:17:19.799Z,102604.06
2022-08-08T07:20:29.613Z,102612.19
2022-08-08T07:24:01.388Z,102614.28
2022-08-08T07:27:16.715Z,102610.34
2022-08-08T07:30:26.616Z,102613.31
2022-08-08T07:33:37.977Z,102619.94
2022-08-08T07:37:02.571Z,102614.13
2022-08-08T07:40:29.223Z,102613.75
2022-08-08T07:43:41.755Z,102602.63
2022-08-08T07:46:58.294Z,102606.22
2022-08-08T07:50:05.027Z,102614.06
2022-08-08T07:53:52.411Z,102616.94
2022-08-08T07:56:55.252Z,102620.09
2022-08-08T08:00:15.783Z,102625.56
2022-08-08T08:03:41.166Z,102624.22
2022-08-08T08:06:51.436Z,102621.34
2022-08-08T08:09:58.596Z,102627.94
2022-08-08T08:13:25.623Z,102630.31
2022-08-08T08:16:50.472Z,102619.88
2022-08-08T08:20:04.581Z,102623.59
2022-08-08T08:23:10.912Z,102628.44
2022-08-08T08:26:27.631Z,102634.34
2022-08-08T08:29:35.705Z,102634.19
2022-08-08T08:32:50.987Z,102634.00
2022-08-08T08:36:19.724Z,102632.22
2022-08-08T08:39:59.363Z,102632.84
2022-08-08T08:42:52.652Z,102634.41
2022-08-08T08:46:03.601Z,102642.41
2022-08-08T08:49:12.153Z,102642.34
2022-08-08T08:52:22.322Z,102642.16
2022-08-08T08:55:39.439Z,102647.59
2022-08-08T08:58:50.219Z,102641.28
2022-08-08T09:02:06.008Z,102650.13
2022-08-08T09:05:48.875Z,102647.53
2022-08-08T09:08:49.859Z,102650.75
2022-08-08T09:12:02.390Z,102654.28
2022-08-08T09:15:24.161Z,102639.31
2022-08-08T09:18:44.758Z,102642.84
2022-08-08T09:21:57.375Z,102646.19
2022-08-08T09:25:12.698Z,102650.81
2022-08-08T09:28:35.470Z,102652.16
2022-08-08T09:31:56.949Z,102643.81
2022-08-08T09:35:09.273Z,102645.31
2022-08-08T09:38:23.161Z,102644.00
2022-08-08T09:42:14.559Z,102654.81
2022-08-08T09:45:15.476Z,102644.75
2022-08-08T09:48:32.362Z,102638.22
2022-08-08T09:52:07.504Z,102649.28
2022-08-08T09:55:08.165Z,102644.78
2022-08-08T09:58:25.840Z,102644.38
2022-08-08T10:01:58.970Z,102654.34
2022-08-08T10:05:14.437Z,102658.81
2022-08-08T10:08:20.484Z,102658.19
2022-08-08T10:12:25.947Z,102667.16
2022-08-08T10:15:01.518Z,102666.31
2022-08-08T10:18:10.554Z,102663.69
2022-08-08T10:21:32.791Z,102664.97
2022-08-08T10:24:47.271Z,102665.53
2022-08-08T10:27:57.683Z,102669.31
2022-08-08T10:31:47.257Z,102665.81
2022-08-08T10:34:57.145Z,102667.44
2022-08-08T10:38:07.954Z,102671.28
2022-08-08T10:41:20.345Z,102669.81
2022-08-08T10:44:30.787Z,102668.31
2022-08-08T10:47:44.121Z,102660.50
2022-08-08T10:50:53.923Z,102658.31
2022-08-08T10:54:01.997Z,102652.22
2022-08-08T10:57:08.927Z,102648.31
2022-08-08T11:00:16.550Z,102646.41
2022-08-08T11:03:37.224Z,102653.34
2022-08-08T11:07:00.853Z,102650.25
2022-08-08T11:10:08.820Z,102646.25
2022-08-08T11:13:30.185Z,102647.44
2022-08-08T11:16:37.007Z,102638.66
2022-08-08T11:19:46.593Z,102633.50
2022-08-08T11:23:00.109Z,102633.38
2022-08-08T11:26:07.522Z,102626.97
2022-08-08T11:29:15.750Z,102630.81
2022-08-08T11:32:29.377Z,102622.88
2022-08-08T11:35:38.419Z,102617.63
2022-08-08T11:38:54.845Z,102616.50
2022-08-08T11:42:01.674Z,102608.34
2022-08-08T11:45:18.433Z,102612.91
2022-08-08T11:48:27.881Z,102611.84
2022-08-08T11:51:40.338Z,102617.59
2022-08-08T11:54:55.181Z,102615.31
2022-08-08T11:58:14.158Z,102611.22
2022-08-08T12:01:31.807Z,102600.19
2022-08-08T12:04:41.071Z,102602.91
2022-08-08T12:07:49.765Z,102603.81
2022-08-08T12:11:01.559Z,102590.06
2022-08-08T12:14:10.951Z,102593.47
2022-08-08T12:17:16.969Z,102598.34
2022-08-08T12:20:23.363Z,102602.00
2022-08-08T12:23:40.800Z,102604.91
2022-08-08T12:26:54.648Z,102601.59
2022-08-08T12:30:04.788Z,102595.44
2022-08-08T12:33:20.598Z,102584.22
2022-08-08T12:36:28.595Z,102588.81
2022-08-08T12:40:00.515Z,102581.69
2022-08-08T12:43:06.658Z,102582.97
2022-08-08T12:46:19.435Z,102576.47
2022-08-08T12:49:43.516Z,102574.38
2022-08-08T12:52:55.776Z,102576.75
2022-08-08T12:56:19.134Z,102589.06
2022-08-08T12:59:44.397Z,102587.09
2022-08-08T13:03:00.849Z,102593.69
2022-08-08T13:06:13.845Z,102580.44
2022-08-08T13:09:33.052Z,102585.25
2022-08-08T13:12:46.930Z,102580.84
2022-08-08T13:15:54.688Z,102581.25
2022-08-08T13:19:08.045Z,102582.47
2022-08-08T13:22:17.701Z,102581.84
2022-08-08T13:25:25.416Z,102581.59
2022-08-08T13:28:32.995Z,102579.94
2022-08-08T13:31:47.439Z,102580.06
2022-08-08T13:34:58.900Z,102581.13
2022-08-08T13:38:08.706Z,102579.97
2022-08-08T13:41:17.479Z,102574.75
2022-08-08T13:44:28.223Z,102579.78
2022-08-08T13:47:36.603Z,102576.00
2022-08-08T13:50:50.884Z,102567.25
2022-08-08T13:54:01.125Z,102566.31
2022-08-08T13:57:12.318Z,102565.13
2022-08-08T14:00:21.724Z,102564.75
2022-08-08T14:03:53.366Z,102563.84
2022-08-08T14:06:59.378Z,102567.69
2022-08-08T14:10:11.659Z,102563.56
2022-08-08T14:13:30.627Z,102556.56
2022-08-08T14:16:49.781Z,102552.34
2022-08-08T14:20:06.372Z,102551.28
2022-08-08T14:23:21.336Z,102562.03
2022-08-08T14:26:43.163Z,102565.22
2022-08-08T14:30:00.995Z,102573.59
2022-08-08T14:33:12.615Z,102571.31
2022-08-08T14:36:31.679Z,102558.94
2022-08-08T14:39:48.369Z,102576.66
2022-08-08T14:42:59.553Z,102575.06
2022-08-08T14:46:07.307Z,102568.69
2022-08-08T14:49:31.776Z,102573.34
2022-08-08T14:52:57.023Z,102568.78
2022-08-08T14:56:04.566Z,102569.31
2022-08-08T14:59:22.149Z,102559.50
2022-08-08T15:02:58.191Z,102574.59
2022-08-08T15:06:04.494Z,102569.56
2022-08-08T15:09:09.843Z,102565.91
2022-08-08T15:12:16.714Z,102563.03
2022-08-08T15:16:02.977Z,102567.50
2022-08-08T15:18:58.234Z,102559.91
2022-08-08T15:22:04.814Z,102554.97
2022-08-08T15:25:17.661Z,102555.09
2022-08-08T15:28:34.917Z,102557.38
2022-08-08T15:32:02.860Z,102551.84
2022-08-08T15:35:05.926Z,102559.38
2022-08-08T15:38:15.170Z,102555.28
2022-08-08T15:41:24.586Z,102553.94
2022-08-08T15:44:30.614Z,102550.09
2022-08-08T15:47:36.749Z,102548.84
2022-08-08T15:50:59.518Z,102544.34
2022-08-08T15:54:06.192Z,102549.66
2022-08-08T15:57:24.301Z,102545.78
2022-08-08T16:00:29.788Z,102550.41
2022-08-08T16:03:36.267Z,102549.19
2022-08-08T16:06:46.743Z,102552.72
2022-08-08T16:13:15.519Z,102551.56
2022-08-08T16:13:35.039Z,102563.81
2022-08-08T16:16:44.677Z,102553.13
2022-08-08T16:19:59.804Z,102556.63
2022-08-08T16:23:08.590Z,102556.06
2022-08-08T16:26:19.353Z,102552.19
2022-08-08T16:29:37.361Z,102557.06
2022-08-08T16:32:53.213Z,102552.94
2022-08-08T16:35:58.937Z,102561.16
2022-08-08T16:39:16.799Z,102557.88
2022-08-08T16:42:34.765Z,102567.28
2022-08-08T16:46:36.206Z,102559.47
2022-08-08T16:49:05.485Z,102552.88
2022-08-08T16:55:02.809Z,102551.91
2022-08-08T16:55:55.593Z,102558.34
2022-08-08T16:59:04.978Z,102553.88
2022-08-08T17:02:38.513Z,102557.09
2022-08-08T17:05:44.671Z,102563.16
2022-08-08T17:08:50.841Z,102555.38
2022-08-08T17:12:00.674Z,102553.09
2022-08-08T17:15:17.783Z,102553.66
2022-08-08T17:18:25.598Z,102550.59
2022-08-08T17:21:37.589Z,102556.81
2022-08-08T17:24:53.652Z,102552.59
2022-08-08T17:28:01.502Z,102555.63
2022-08-08T17:31:44.893Z,102564.78
2022-08-08T17:34:53.191Z,102574.25
2022-08-08T17:37:58.454Z,102574.75
2022-08-08T17:41:03.639Z,102585.22
2022-08-08T17:44:13.264Z,102586.06
2022-08-08T17:47:27.507Z,102587.44
2022-08-08T17:50:33.587Z,102577.97
2022-08-08T17:53:42.561Z,102592.44
2022-08-08T17:56:51.902Z,102588.44
2022-08-08T18:00:01.607Z,102586.81
2022-08-08T18:03:13.591Z,102570.00
2022-08-08T18:06:30.525Z,102579.41
2022-08-08T18:09:38.782Z,102579.41
2022-08-08T18:12:46.214Z,102582.63
2022-08-08T18:16:00.033Z,102583.28
2022-08-08T18:19:12.954Z,102585.84
2022-08-08T18:22:50.109Z,102594.84
2022-08-08T18:25:46.906Z,102592.53
2022-08-08T18:28:54.762Z,102598.94
2022-08-08T18:32:03.638Z,102603.88
2022-08-08T18:35:15.642Z,102605.16
2022-08-08T18:38:21.693Z,102613.47
2022-08-08T18:41:51.107Z,102612.41
2022-08-08T18:44:59.863Z,102611.84
2022-08-08T18:48:07.431Z,102610.13
2022-08-08T18:51:40.595Z,102616.75
2022-08-08T18:54:43.096Z,102623.31
2022-08-08T18:57:48.944Z,102619.50
2022-08-08T19:00:54.364Z,102633.28
2022-08-08T19:04:10.329Z,102631.19
2022-08-08T19:07:17.444Z,102636.69
2022-08-08T19:10:25.454Z,102644.09
2022-08-08T19:13:53.503Z,102642.44
2022-08-08T19:16:57.142Z,102642.59
2022-08-08T19:20:06.192Z,102646.38
2022-08-08T19:23:12.917Z,102654.22
2022-08-08T19:26:29.984Z,102660.94
2022-08-08T19:29:42.332Z,102656.69
2022-08-08T19:32:51.137Z,102663.22
2022-08-08T19:36:08.665Z,102672.28
2022-08-08T19:39:16.394Z,102676.91
2022-08-08T19:42:24.669Z,102682.81
2022-08-08T19:45:59.032Z,102679.19
2022-08-08T19:48:55.680Z,102682.97
2022-08-08T19:52:02.071Z,102682.72
2022-08-08T19:55:12.560Z,102692.00
2022-08-08T19:58:17.593Z,102699.13
2022-08-08T20:01:50.429Z,102692.72
2022-08-08T20:04:48.941Z,102700.31
2022-08-08T20:08:28.023Z,102698.16
2022-08-08T20:11:24.754Z,102705.91
2022-08-08T20:14:33.810Z,102701.69
2022-08-08T20:17:43.039Z,102698.47
2022-08-08T20:20:51.135Z,102705.69
2022-08-08T20:23:59.221Z,102702.00
2022-08-08T20:27:06.312Z,102706.59
2022-08-08T20:30:52.690Z,102703.41
2022-08-08T20:34:27.030Z,102706.16
2022-08-08T20:37:07.249Z,102709.53
2022-08-08T20:40:16.586Z,102709.91
2022-08-08T20:43:43.152Z,102710.69
2022-08-08T20:46:51.008Z,102713.16
2022-08-08T20:49:57.908Z,102709.97
2022-08-08T20:53:03.626Z,102708.69
2022-08-08T20:56:14.092Z,102707.38
2022-08-08T20:59:24.867Z,102704.84
2022-08-08T21:02:30.356Z,102710.06
2022-08-08T21:05:49.213Z,102713.00
2022-08-08T21:09:04.498Z,102721.34
2022-08-08T21:12:10.439Z,102718.31
2022-08-08T21:16:05.120Z,102717.19
2022-08-08T21:18:42.606Z,102717.97
2022-08-08T21:21:56.091Z,102714.19
2022-08-08T21:25:02.146Z,102721.56
2022-08-08T21:28:14.903Z,102729.63
2022-08-08T21:31:23.837Z,102719.03
2022-08-08T21:34:49.494Z,102723.84
2022-08-08T21:37:55.240Z,102726.06
2022-08-08T21:41:00.362Z,102728.59
2022-08-08T21:44:06.470Z,102723.69
2022-08-08T21:48:04.029Z,102719.25
2022-08-08T21:50:38.725Z,102719.84
2022-08-08T21:54:36.378Z,102715.09
2022-08-08T21:57:09.462Z,102711.25
2022-08-08T22:00:15.346Z,102716.28
2022-08-08T22:03:32.638Z,102725.75
2022-08-08T22:06:41.428Z,102730.47
2022-08-08T22:09:46.702Z,102731.88
2022-08-08T22:12:53.405Z,102736.22
2022-08-08T22:16:01.046Z,102738.50
2022-08-08T22:19:09.103Z,102740.88
2022-08-08T22:22:24.364Z,102732.91
2022-08-08T22:25:41.610Z,102736.91
2022-08-08T22:29:15.139Z,102738.00
2022-08-08T22:32:27.777Z,102735.88
2022-08-08T22:36:04.033Z,102733.66
2022-08-08T22:38:59.790Z,102739.00
2022-08-08T22:42:10.049Z,102731.56
2022-08-08T22:45:16.414Z,102735.22
2022-08-08T22:48:21.640Z,102738.06
2022-08-08T22:51:29.432Z,102737.75
2022-08-08T22:54:58.810Z,102741.88
2022-08-08T22:58:05.792Z,102740.91
2022-08-08T23:02:03.002Z,102741.75
2022-08-08T23:04:37.925Z,102738.38
2022-08-08T23:07:57.780Z,102740.50
2022-08-08T23:11:06.483Z,102738.31
2022-08-08T23:14:20.694Z,102742.44
2022-08-08T23:17:30.071Z,102742.72
2022-08-08T23:20:35.380Z,102744.28
2022-08-08T23:23:48.812Z,102744.81
2022-08-08T23:27:01.627Z,102750.97
2022-08-08T23:30:09.449Z,102748.75
2022-08-08T23:33:21.079Z,102751.28
2022-08-08T23:36:40.336Z,102753.84
2022-08-08T23:39:49.440Z,102751.22
2022-08-08T23:43:04.431Z,102752.91
2022-08-08T23:49:06.161Z,102760.63
2022-08-08T23:49:35.505Z,102758.81
2022-08-08T23:52:41.328Z,102753.03
2022-08-08T23:55:50.321Z,102752.06
2022-08-08T23:58:58.487Z,102760.88
